createdAt,value
2019-04-22T00:00:49.388Z,85.90
2019-04-22T00:03:15.211Z,84.30
2019-04-22T00:06:01.131Z,84.40
2019-04-22T00:08:30.951Z,85.40
2019-04-22T00:11:04.673Z,87.60
2019-04-22T00:13:32.389Z,86.20
2019-04-22T00:15:51.746Z,85.70
2019-04-22T00:18:22.296Z,85.70
2019-04-22T00:20:54.270Z,87.40
2019-04-22T00:23:14.101Z,86.20
2019-04-22T00:25:49.338Z,85.70
2019-04-22T00:28:20.000Z,86.70
2019-04-22T00:30:35.960Z,86.30
2019-04-22T00:33:07.827Z,86.20
2019-04-22T00:35:40.025Z,87.10
2019-04-22T00:38:07.749Z,86.80
2019-04-22T00:40:34.015Z,87.30
2019-04-22T00:42:58.007Z,86.80
2019-04-22T00:45:26.749Z,87.10
2019-04-22T00:47:50.389Z,87.00
2019-04-22T00:52:50.798Z,87.60
2019-04-22T00:57:44.244Z,87.40
2019-04-22T01:00:05.524Z,88.50
2019-04-22T01:02:44.560Z,86.70
2019-04-22T01:05:04.115Z,88.60
2019-04-22T01:07:30.119Z,90.50
2019-04-22T01:09:58.626Z,88.50
2019-04-22T01:12:26.533Z,88.10
2019-04-22T01:14:51.917Z,90.70
2019-04-22T01:17:11.673Z,88.90
2019-04-22T01:19:52.594Z,90.30
2019-04-22T01:22:13.437Z,89.30
2019-04-22T01:24:33.965Z,88.50
2019-04-22T01:26:57.920Z,89.90
2019-04-22T01:29:22.853Z,90.00
2019-04-22T01:31:39.978Z,90.60
2019-04-22T01:34:28.846Z,90.60
2019-04-22T01:37:03.386Z,89.10
2019-04-22T01:39:37.559Z,90.50
2019-04-22T01:44:35.296Z,89.90
2019-04-22T01:46:58.757Z,90.20
2019-04-22T01:49:27.514Z,89.80
2019-04-22T01:51:58.413Z,90.10
2019-04-22T01:54:25.040Z,90.50
2019-04-22T01:56:47.089Z,90.80
2019-04-22T01:59:06.316Z,90.00
2019-04-22T02:01:48.376Z,90.80
2019-04-22T02:04:15.231Z,90.90
2019-04-22T02:06:36.380Z,91.80
2019-04-22T02:09:15.445Z,91.30
2019-04-22T02:11:37.357Z,91.90
2019-04-22T02:13:56.335Z,91.50
2019-04-22T02:16:21.378Z,91.50
2019-04-22T02:18:56.027Z,91.40
2019-04-22T02:21:13.875Z,91.70
2019-04-22T02:36:18.670Z,91.60
2019-04-22T02:41:16.007Z,91.20
2019-04-22T02:43:51.457Z,91.20
2019-04-22T02:46:13.418Z,92.70
2019-04-22T02:48:37.920Z,92.50
2019-04-22T02:50:59.266Z,92.20
2019-04-22T02:53:30.152Z,91.70
2019-04-22T02:55:49.310Z,91.80
2019-04-22T02:58:12.606Z,91.70
2019-04-22T03:00:37.996Z,92.50
2019-04-22T03:05:37.937Z,91.90
2019-04-22T03:08:10.613Z,91.90
2019-04-22T03:10:43.857Z,91.90
2019-04-22T03:12:51.681Z,92.60
2019-04-22T03:15:22.035Z,93.10
2019-04-22T03:22:47.625Z,93.90
2019-04-22T03:25:42.751Z,93.60
2019-04-22T03:27:35.305Z,92.90
2019-04-22T03:35:31.769Z,93.20
2019-04-22T03:37:37.728Z,93.40
2019-04-22T03:40:02.514Z,92.80
2019-04-22T03:42:45.667Z,92.90
2019-04-22T03:44:57.877Z,92.90
2019-04-22T03:47:33.877Z,93.20
2019-04-22T03:50:04.146Z,93.30
2019-04-22T03:54:45.612Z,94.10
2019-04-22T04:02:01.904Z,93.10
2019-04-22T04:07:11.221Z,93.30
2019-04-22T04:09:18.107Z,93.50
2019-04-22T04:12:04.090Z,93.50
2019-04-22T04:16:47.719Z,94.40
2019-04-22T04:26:45.593Z,94.90
2019-04-22T04:31:36.634Z,94.60
2019-04-22T04:34:00.524Z,94.70
2019-04-22T04:36:23.876Z,94.60
2019-04-22T04:38:51.913Z,94.70
2019-04-22T04:41:23.161Z,95.00
2019-04-22T04:43:50.578Z,95.00
2019-04-22T04:46:16.602Z,95.00
2019-04-22T04:48:42.849Z,94.80
2019-04-22T04:55:53.920Z,95.00
2019-04-22T05:01:27.083Z,95.00
2019-04-22T05:03:10.585Z,94.60
2019-04-22T05:05:39.821Z,94.60
2019-04-22T05:08:19.831Z,94.50
2019-04-22T05:10:51.626Z,93.90
2019-04-22T05:13:01.319Z,93.10
2019-04-22T05:18:06.518Z,92.70
2019-04-22T05:22:55.882Z,92.20
2019-04-22T05:25:27.286Z,91.80
2019-04-22T05:32:41.675Z,90.80
2019-04-22T05:35:06.834Z,90.70
2019-04-22T05:37:35.632Z,90.20
2019-04-22T05:40:04.451Z,90.50
2019-04-22T05:42:39.644Z,90.20
2019-04-22T05:45:00.766Z,89.70
2019-04-22T05:47:22.488Z,89.60
2019-04-22T05:49:42.992Z,89.70
2019-04-22T05:52:11.123Z,88.50
2019-04-22T05:54:38.526Z,84.80
2019-04-22T05:57:13.008Z,83.70
2019-04-22T05:59:36.195Z,82.60
2019-04-22T06:04:25.690Z,78.10
2019-04-22T06:06:57.183Z,76.30
2019-04-22T06:09:24.350Z,74.80
2019-04-22T06:11:44.784Z,73.80
2019-04-22T06:14:14.974Z,73.20
2019-04-22T06:16:53.974Z,72.70
2019-04-22T06:19:13.735Z,69.40
2019-04-22T06:24:13.832Z,68.40
2019-04-22T06:29:02.179Z,63.80
2019-04-22T06:31:38.588Z,61.40
2019-04-22T06:34:02.055Z,60.40
2019-04-22T06:36:23.340Z,60.00
2019-04-22T06:38:50.235Z,61.60
2019-04-22T06:43:47.537Z,59.70
2019-04-22T06:46:17.308Z,59.90
2019-04-22T06:48:36.571Z,56.10
2019-04-22T06:51:00.195Z,54.10
2019-04-22T06:55:59.924Z,53.50
2019-04-22T06:58:20.036Z,52.40
2019-04-22T07:01:09.775Z,51.60
2019-04-22T07:05:52.568Z,52.20
2019-04-22T07:10:45.111Z,50.50
2019-04-22T07:13:11.632Z,51.00
2019-04-22T07:15:46.784Z,50.10
2019-04-22T07:18:04.121Z,50.20
2019-04-22T07:20:33.000Z,49.80
2019-04-22T07:23:03.619Z,50.10
2019-04-22T07:25:25.073Z,50.00
2019-04-22T07:27:56.452Z,48.80
2019-04-22T07:30:21.995Z,49.30
2019-04-22T07:33:05.065Z,49.70
2019-04-22T07:35:12.920Z,50.80
2019-04-22T07:40:02.234Z,49.90
2019-04-22T07:45:05.006Z,50.60
2019-04-22T07:47:36.029Z,50.00
2019-04-22T07:50:03.609Z,50.50
2019-04-22T07:52:22.576Z,50.00
2019-04-22T07:54:52.443Z,52.40
2019-04-22T07:57:24.675Z,50.50
2019-04-22T07:59:50.963Z,51.10
2019-04-22T08:02:10.266Z,50.50
2019-04-22T08:07:05.209Z,49.40
2019-04-22T08:09:41.804Z,51.50
2019-04-22T08:11:59.288Z,50.70
2019-04-22T08:14:29.751Z,48.90
2019-04-22T08:17:00.998Z,49.80
2019-04-22T08:19:23.569Z,49.00
2019-04-22T08:21:52.108Z,49.10
2019-04-22T08:24:17.860Z,47.90
2019-04-22T08:26:52.008Z,48.60
2019-04-22T08:29:16.125Z,49.20
2019-04-22T08:34:12.038Z,49.40
2019-04-22T08:36:31.602Z,49.40
2019-04-22T08:39:16.746Z,48.50
2019-04-22T08:41:31.867Z,50.50
2019-04-22T08:43:57.429Z,49.80
2019-04-22T08:46:27.330Z,49.60
2019-04-22T08:48:51.606Z,47.90
2019-04-22T08:51:13.627Z,49.60
2019-04-22T08:53:48.176Z,47.80
2019-04-22T08:56:28.008Z,47.60
2019-04-22T08:58:48.747Z,46.80
2019-04-22T09:01:05.302Z,47.70
2019-04-22T09:03:30.403Z,44.40
2019-04-22T09:06:22.402Z,44.90
2019-04-22T09:08:32.194Z,44.40
2019-04-22T09:10:59.946Z,44.30
2019-04-22T09:13:22.460Z,42.60
2019-04-22T09:16:08.756Z,43.00
2019-04-22T09:18:14.534Z,43.50
2019-04-22T09:20:49.266Z,43.80
2019-04-22T09:23:15.004Z,41.70
2019-04-22T09:25:41.901Z,42.00
2019-04-22T09:28:02.015Z,42.20
2019-04-22T09:33:08.263Z,43.50
2019-04-22T09:35:31.561Z,42.50
2019-04-22T09:40:22.226Z,42.00
2019-04-22T09:42:53.281Z,42.00
2019-04-22T09:45:15.453Z,42.00
2019-04-22T09:47:48.935Z,42.80
2019-04-22T09:50:12.626Z,43.40
2019-04-22T09:52:42.132Z,44.30
2019-04-22T09:55:12.753Z,45.00
2019-04-22T09:57:35.230Z,44.40
2019-04-22T10:00:07.167Z,44.20
2019-04-22T10:04:55.139Z,43.70
2019-04-22T10:07:20.963Z,44.80
2019-04-22T10:10:00.032Z,44.60
2019-04-22T10:12:19.604Z,44.60
2019-04-22T10:14:45.666Z,44.00
2019-04-22T10:17:09.965Z,43.80
2019-04-22T10:19:35.830Z,43.60
2019-04-22T10:22:05.657Z,44.30
2019-04-22T10:24:29.635Z,43.70
2019-04-22T10:26:59.931Z,43.30
2019-04-22T10:29:28.948Z,44.60
2019-04-22T10:34:09.280Z,43.80
2019-04-22T10:36:21.593Z,44.30
2019-04-22T10:38:48.714Z,43.40
2019-04-22T10:41:14.485Z,43.20
2019-04-22T10:43:41.102Z,44.80
2019-04-22T10:46:08.096Z,44.00
2019-04-22T10:48:34.695Z,44.20
2019-04-22T10:51:01.001Z,43.50
2019-04-22T10:53:26.446Z,43.20
2019-04-22T10:55:51.953Z,42.60
2019-04-22T10:58:18.555Z,44.30
2019-04-22T11:00:45.299Z,43.20
2019-04-22T11:03:14.054Z,45.20
2019-04-22T11:05:41.957Z,44.00
2019-04-22T11:08:08.507Z,43.00
2019-04-22T11:10:50.572Z,43.90
2019-04-22T11:13:03.014Z,43.40
2019-04-22T11:15:28.750Z,44.50
2019-04-22T11:17:55.538Z,44.60
2019-04-22T11:20:21.822Z,43.40
2019-04-22T11:22:48.819Z,41.90
2019-04-22T11:25:16.043Z,42.20
2019-04-22T11:27:43.168Z,43.80
2019-04-22T11:30:09.152Z,43.50
2019-04-22T11:32:34.500Z,44.10
2019-04-22T11:34:59.894Z,43.10
2019-04-22T11:37:25.859Z,43.00
2019-04-22T11:40:04.884Z,44.00
2019-04-22T11:42:20.337Z,43.50
2019-04-22T11:44:45.869Z,42.90
2019-04-22T11:47:11.773Z,44.50
2019-04-22T11:49:39.704Z,43.00
2019-04-22T11:52:07.314Z,43.50
2019-04-22T11:54:32.591Z,44.10
2019-04-22T11:56:59.025Z,43.70
2019-04-22T11:59:26.833Z,44.10
2019-04-22T12:01:52.972Z,44.70
2019-04-22T12:04:20.017Z,43.50
2019-04-22T12:06:46.225Z,43.90
2019-04-22T12:09:12.745Z,43.90
2019-04-22T12:11:38.542Z,45.90
2019-04-22T12:14:04.185Z,44.50
2019-04-22T12:16:29.972Z,42.90
2019-04-22T12:18:55.518Z,43.50
2019-04-22T12:21:21.485Z,42.60
2019-04-22T12:23:47.287Z,44.40
2019-04-22T12:26:18.432Z,42.50
2019-04-22T12:28:41.518Z,42.90
2019-04-22T12:31:06.879Z,42.60
2019-04-22T12:33:32.278Z,43.50
2019-04-22T12:35:57.645Z,42.80
2019-04-22T12:38:24.068Z,42.30
2019-04-22T12:40:56.536Z,42.90
2019-04-22T12:43:20.251Z,43.10
2019-04-22T12:45:44.762Z,43.40
2019-04-22T12:48:10.691Z,42.40
2019-04-22T12:50:40.687Z,43.40
2019-04-22T12:53:07.257Z,42.40
2019-04-22T12:55:30.359Z,42.40
2019-04-22T12:57:58.895Z,42.10
2019-04-22T13:00:26.591Z,42.80
2019-04-22T13:02:54.717Z,42.80
2019-04-22T13:05:20.149Z,44.00
2019-04-22T13:07:55.763Z,42.30
2019-04-22T13:10:22.004Z,41.70
2019-04-22T13:12:48.790Z,41.30
2019-04-22T13:15:16.178Z,43.30
2019-04-22T13:17:44.335Z,42.90
2019-04-22T13:20:14.187Z,41.80
2019-04-22T13:22:38.943Z,41.80
2019-04-22T13:25:06.061Z,42.80
2019-04-22T13:27:33.031Z,42.60
2019-04-22T13:29:59.775Z,42.00
2019-04-22T13:32:26.881Z,42.60
2019-04-22T13:34:57.510Z,42.80
2019-04-22T13:37:20.924Z,42.10
2019-04-22T13:39:47.321Z,42.80
2019-04-22T13:42:17.981Z,41.70
2019-04-22T13:44:39.891Z,42.20
2019-04-22T13:47:20.728Z,43.00
2019-04-22T13:52:40.950Z,41.90
2019-04-22T13:57:12.104Z,42.10
2019-04-22T13:59:30.146Z,42.40
2019-04-22T14:01:58.930Z,41.60
2019-04-22T14:04:28.602Z,42.20
2019-04-22T14:06:54.644Z,43.90
2019-04-22T14:09:20.418Z,43.10
2019-04-22T14:11:53.857Z,42.90
2019-04-22T14:14:13.830Z,42.80
2019-04-22T14:16:40.647Z,43.60
2019-04-22T14:19:07.822Z,42.00
2019-04-22T14:21:34.659Z,40.80
2019-04-22T14:24:00.443Z,40.50
2019-04-22T14:26:28.396Z,41.80
2019-04-22T14:28:53.910Z,40.00
2019-04-22T14:31:20.530Z,39.70
2019-04-22T14:33:47.284Z,40.60
2019-04-22T14:36:12.956Z,41.00
2019-04-22T14:38:39.740Z,42.00
2019-04-22T14:41:05.909Z,41.40
2019-04-22T14:44:00.162Z,41.90
2019-04-22T14:46:20.521Z,42.00
2019-04-22T14:48:49.842Z,42.40
2019-04-22T14:51:14.810Z,42.20
2019-04-22T14:53:41.544Z,42.90
2019-04-22T14:55:48.580Z,41.40
2019-04-22T14:58:15.091Z,39.50
2019-04-22T15:00:42.256Z,39.50
2019-04-22T15:03:08.339Z,40.20
2019-04-22T15:05:34.373Z,40.90
2019-04-22T15:08:01.205Z,41.80
2019-04-22T15:10:28.114Z,42.60
2019-04-22T15:12:57.031Z,41.40
2019-04-22T15:16:01.537Z,42.20
2019-04-22T15:18:49.538Z,42.20
2019-04-22T15:21:18.657Z,42.00
2019-04-22T15:23:46.577Z,41.80
2019-04-22T15:26:12.592Z,41.20
2019-04-22T15:28:39.506Z,40.70
2019-04-22T15:31:05.702Z,40.90
2019-04-22T15:33:31.310Z,41.80
2019-04-22T15:35:56.731Z,41.80
2019-04-22T15:38:24.134Z,41.80
2019-04-22T15:40:49.173Z,43.00
2019-04-22T15:43:14.923Z,43.20
2019-04-22T15:45:41.211Z,43.60
2019-04-22T15:48:08.202Z,44.30
2019-04-22T15:50:35.061Z,44.50
2019-04-22T15:53:02.516Z,44.90
2019-04-22T15:55:28.947Z,45.00
2019-04-22T15:57:54.744Z,45.10
2019-04-22T16:00:33.139Z,45.40
2019-04-22T16:02:47.698Z,45.60
2019-04-22T16:05:14.804Z,45.70
2019-04-22T16:07:40.278Z,45.90
2019-04-22T16:10:06.014Z,46.80
2019-04-22T16:12:39.321Z,46.90
2019-04-22T16:14:59.720Z,46.90
2019-04-22T16:17:26.490Z,46.90
2019-04-22T16:19:53.218Z,47.30
2019-04-22T16:22:21.210Z,47.60
2019-04-22T16:25:04.761Z,47.60
2019-04-22T16:27:32.156Z,47.80
2019-04-22T16:29:59.190Z,47.50
2019-04-22T16:32:27.618Z,47.90
2019-04-22T16:34:54.539Z,48.40
2019-04-22T16:37:20.906Z,48.80
2019-04-22T16:39:48.534Z,48.20
2019-04-22T16:42:25.641Z,48.60
2019-04-22T16:44:40.747Z,49.10
2019-04-22T16:47:07.910Z,49.40
2019-04-22T16:49:33.855Z,49.00
2019-04-22T16:52:00.305Z,49.10
2019-04-22T16:54:26.301Z,49.40
2019-04-22T16:56:54.219Z,49.50
2019-04-22T16:59:19.649Z,49.80
2019-04-22T17:02:04.446Z,50.20
2019-04-22T17:04:50.784Z,50.10
2019-04-22T17:07:18.071Z,50.30
2019-04-22T17:09:43.957Z,50.60
2019-04-22T17:12:11.934Z,50.10
2019-04-22T17:14:47.554Z,50.40
2019-04-22T17:17:08.508Z,50.80
2019-04-22T17:19:35.366Z,51.30
2019-04-22T17:22:01.681Z,50.40
2019-04-22T17:24:27.821Z,50.50
2019-04-22T17:26:54.623Z,50.80
2019-04-22T17:29:20.888Z,51.20
2019-04-22T17:31:50.926Z,51.60
2019-04-22T17:34:13.988Z,51.70
2019-04-22T17:36:40.516Z,52.10
2019-04-22T17:39:24.684Z,52.40
2019-04-22T17:41:56.860Z,52.80
2019-04-22T17:44:37.803Z,52.70
2019-04-22T17:47:04.003Z,53.50
2019-04-22T17:49:52.182Z,53.80
2019-04-22T17:52:21.079Z,54.10
2019-04-22T17:54:43.460Z,53.80
2019-04-22T17:57:09.951Z,53.50
2019-04-22T17:59:39.138Z,54.00
2019-04-22T18:02:02.576Z,55.00
2019-04-22T18:04:14.394Z,54.60
2019-04-22T18:07:05.462Z,54.90
2019-04-22T18:09:40.328Z,54.90
2019-04-22T18:12:05.173Z,55.20
2019-04-22T18:14:43.428Z,55.50
2019-04-22T18:16:51.924Z,55.80
2019-04-22T18:19:20.380Z,56.00
2019-04-22T18:21:40.645Z,56.40
2019-04-22T18:24:04.631Z,56.60
2019-04-22T18:26:38.903Z,57.00
2019-04-22T18:29:07.413Z,57.20
2019-04-22T18:31:27.142Z,57.30
2019-04-22T18:33:59.476Z,57.40
2019-04-22T18:36:22.772Z,57.60
2019-04-22T18:39:06.262Z,58.00
2019-04-22T18:41:17.874Z,58.50
2019-04-22T18:43:51.702Z,58.50
2019-04-22T18:46:14.601Z,58.70
2019-04-22T18:48:46.132Z,58.90
2019-04-22T18:51:24.653Z,59.20
2019-04-22T18:54:01.830Z,59.60
2019-04-22T18:56:32.522Z,59.90
2019-04-22T18:58:47.741Z,60.40
2019-04-22T19:01:03.884Z,60.60
2019-04-22T19:03:32.197Z,61.60
2019-04-22T19:06:31.849Z,61.00
2019-04-22T19:08:45.582Z,61.00
2019-04-22T19:11:11.219Z,61.50
2019-04-22T19:18:34.654Z,62.30
2019-04-22T19:21:01.262Z,63.50
2019-04-22T19:23:28.450Z,62.60
2019-04-22T19:25:52.317Z,63.20
2019-04-22T19:28:29.603Z,63.60
2019-04-22T19:30:47.817Z,63.70
2019-04-22T19:33:19.131Z,63.90
2019-04-22T19:35:40.131Z,64.40
2019-04-22T19:38:04.879Z,64.70
2019-04-22T19:40:47.569Z,64.90
2019-04-22T19:43:10.374Z,65.10
2019-04-22T19:45:32.702Z,65.10
2019-04-22T19:48:03.413Z,66.00
2019-04-22T19:50:44.382Z,65.90
2019-04-22T19:53:00.747Z,66.00
2019-04-22T19:55:25.423Z,66.00
2019-04-22T19:57:48.932Z,66.60
2019-04-22T20:00:22.940Z,66.80
2019-04-22T20:03:21.752Z,66.90
2019-04-22T20:05:47.887Z,67.80
2019-04-22T20:08:17.812Z,68.00
2019-04-22T20:10:44.403Z,68.20
2019-04-22T20:13:15.039Z,69.00
2019-04-22T20:15:32.297Z,68.90
2019-04-22T20:18:23.908Z,69.20
2019-04-22T20:20:44.660Z,69.30
2019-04-22T20:23:02.152Z,69.60
2019-04-22T20:25:31.361Z,69.90
2019-04-22T20:28:07.488Z,70.00
2019-04-22T20:30:46.213Z,70.40
2019-04-22T20:32:52.480Z,70.80
2019-04-22T20:35:26.500Z,70.80
2019-04-22T20:37:56.701Z,71.50
2019-04-22T20:40:25.380Z,72.50
2019-04-22T20:42:55.288Z,72.20
2019-04-22T20:45:19.494Z,72.40
2019-04-22T20:47:34.039Z,72.70
2019-04-22T20:50:17.522Z,73.10
2019-04-22T20:52:38.754Z,73.60
2019-04-22T20:54:58.911Z,73.80
2019-04-22T20:57:32.008Z,73.70
2019-04-22T20:59:51.095Z,74.30
2019-04-22T21:02:18.269Z,74.20
2019-04-22T21:04:41.529Z,74.60
2019-04-22T21:07:14.047Z,74.50
2019-04-22T21:09:47.105Z,74.60
2019-04-22T21:12:12.190Z,74.70
2019-04-22T21:14:36.181Z,74.80
2019-04-22T21:17:06.715Z,75.00
2019-04-22T21:19:40.403Z,75.10
2019-04-22T21:22:03.691Z,75.10
2019-04-22T21:24:27.597Z,75.40
2019-04-22T21:26:57.045Z,75.50
2019-04-22T21:29:16.248Z,75.40
2019-04-22T21:31:52.127Z,75.80
2019-04-22T21:34:13.063Z,75.90
2019-04-22T21:36:48.240Z,75.90
2019-04-22T21:39:08.187Z,76.40
2019-04-22T21:41:36.874Z,76.60
2019-04-22T21:44:04.191Z,76.70
2019-04-22T21:46:34.825Z,76.80
2019-04-22T21:49:00.171Z,77.10
2019-04-22T21:51:32.831Z,77.60
2019-04-22T21:53:58.671Z,77.70
2019-04-22T21:56:34.584Z,78.00
2019-04-22T21:58:55.995Z,78.00
2019-04-22T22:01:49.645Z,78.20
2019-04-22T22:04:07.939Z,78.40
2019-04-22T22:06:25.900Z,78.60
2019-04-22T22:09:05.864Z,79.00
2019-04-22T22:11:27.835Z,79.20
2019-04-22T22:13:59.202Z,79.40
2019-04-22T22:16:18.826Z,79.60
2019-04-22T22:18:52.807Z,79.60
2019-04-22T22:21:38.201Z,79.60
2019-04-22T22:23:46.929Z,80.00
2019-04-22T22:26:08.583Z,80.30
2019-04-22T22:31:11.196Z,80.30
2019-04-22T22:33:40.714Z,80.20
2019-04-22T22:35:57.901Z,80.30
2019-04-22T22:38:24.251Z,80.30
2019-04-22T22:40:36.687Z,80.50
2019-04-22T22:43:11.713Z,80.70
2019-04-22T22:45:37.427Z,80.50
2019-04-22T22:48:23.563Z,80.50
2019-04-22T22:50:42.991Z,80.60
2019-04-22T22:53:20.770Z,80.80
2019-04-22T22:55:37.393Z,80.80
2019-04-22T22:58:04.150Z,80.80
2019-04-22T23:00:32.291Z,81.30
2019-04-22T23:03:16.857Z,81.40
2019-04-22T23:05:35.423Z,81.60
2019-04-22T23:07:58.746Z,81.20
2019-04-22T23:10:26.763Z,81.30
2019-04-22T23:13:05.047Z,81.90
2019-04-22T23:15:18.584Z,81.60
2019-04-22T23:17:29.446Z,81.80
2019-04-22T23:19:54.723Z,82.00
2019-04-22T23:22:28.391Z,81.80
2019-04-22T23:25:13.906Z,82.00
2019-04-22T23:27:40.430Z,81.90
2019-04-22T23:30:19.441Z,82.10
2019-04-22T23:32:49.963Z,82.10
2019-04-22T23:35:39.650Z,82.10
2019-04-22T23:38:07.776Z,82.00
2019-04-22T23:40:38.985Z,82.20
2019-04-22T23:43:09.056Z,82.30
2019-04-22T23:45:33.173Z,82.40
2019-04-22T23:47:49.884Z,82.60
2019-04-22T23:50:26.728Z,82.60
2019-04-22T23:53:00.534Z,82.70
2019-04-22T23:55:28.966Z,83.20
2019-04-22T23:57:57.128Z,82.80
